createdAt,value
2017-11-04T00:00:12.394Z,13.27
2017-11-04T00:02:38.527Z,13.83
2017-11-04T00:05:04.584Z,14.10
2017-11-04T00:07:30.722Z,15.97
2017-11-04T00:09:56.738Z,14.20
2017-11-04T00:12:22.811Z,16.33
2017-11-04T00:14:48.942Z,15.70
2017-11-04T00:17:15.020Z,17.10
2017-11-04T00:19:41.070Z,17.00
2017-11-04T00:22:07.206Z,16.03
2017-11-04T00:24:33.323Z,14.63
2017-11-04T00:26:59.522Z,16.77
2017-11-04T00:29:25.684Z,15.43
2017-11-04T00:31:51.810Z,14.67
2017-11-04T00:34:18.143Z,15.03
2017-11-04T00:36:44.247Z,14.17
2017-11-04T00:39:10.364Z,16.20
2017-11-04T00:41:36.465Z,15.67
2017-11-04T00:44:02.561Z,13.50
2017-11-04T00:46:28.678Z,15.90
2017-11-04T00:48:54.754Z,19.57
2017-11-04T00:51:20.862Z,15.90
2017-11-04T00:53:47.216Z,15.70
2017-11-04T00:56:13.270Z,14.30
2017-11-04T00:58:39.338Z,14.57
2017-11-04T01:01:05.420Z,13.77
2017-11-04T01:03:31.538Z,13.47
2017-11-04T01:05:57.634Z,12.60
2017-11-04T01:08:23.732Z,13.63
2017-11-04T01:10:49.799Z,13.70
2017-11-04T01:13:15.994Z,13.87
2017-11-04T01:15:42.075Z,12.60
2017-11-04T01:18:08.163Z,12.97
2017-11-04T01:20:34.258Z,14.33
2017-11-04T01:23:00.298Z,13.33
2017-11-04T01:25:26.561Z,13.97
2017-11-04T01:27:52.645Z,13.17
2017-11-04T01:30:18.678Z,14.33
2017-11-04T01:32:44.778Z,12.60
2017-11-04T01:35:10.847Z,14.30
2017-11-04T01:37:36.908Z,14.27
2017-11-04T01:40:03.155Z,13.20
2017-11-04T01:42:29.253Z,12.63
2017-11-04T01:44:55.297Z,13.50
2017-11-04T01:47:21.322Z,17.60
2017-11-04T01:49:47.430Z,14.03
2017-11-04T01:52:13.550Z,14.60
2017-11-04T01:54:39.578Z,15.23
2017-11-04T01:57:05.659Z,15.83
2017-11-04T01:59:31.714Z,14.30
2017-11-04T02:01:57.793Z,15.20
2017-11-04T02:04:23.811Z,15.77
2017-11-04T02:06:49.858Z,16.73
2017-11-04T02:09:18.808Z,15.93
2017-11-04T02:11:44.926Z,14.97
2017-11-04T02:14:10.990Z,15.40
2017-11-04T02:16:37.071Z,16.07
2017-11-04T02:19:03.101Z,16.60
2017-11-04T02:21:29.182Z,16.73
2017-11-04T02:23:55.248Z,14.83
2017-11-04T02:26:21.331Z,15.63
2017-11-04T02:28:47.420Z,15.13
2017-11-04T02:31:13.538Z,15.87
2017-11-04T02:33:39.741Z,13.20
2017-11-04T02:36:05.834Z,15.43
2017-11-04T02:38:31.867Z,12.90
2017-11-04T02:40:58.061Z,15.17
2017-11-04T02:43:24.085Z,15.60
2017-11-04T02:45:50.182Z,13.80
2017-11-04T02:48:16.347Z,13.00
2017-11-04T02:50:42.402Z,14.90
2017-11-04T02:53:08.546Z,13.97
2017-11-04T02:55:34.558Z,16.30
2017-11-04T02:58:00.639Z,17.73
2017-11-04T03:00:26.758Z,14.83
2017-11-04T03:02:52.814Z,15.00
2017-11-04T03:05:18.876Z,15.10
2017-11-04T03:07:44.963Z,16.23
2017-11-04T03:10:11.072Z,16.53
2017-11-04T03:12:37.192Z,17.07
2017-11-04T03:15:03.270Z,14.83
2017-11-04T03:17:29.338Z,15.57
2017-11-04T03:19:55.428Z,15.50
2017-11-04T03:22:21.566Z,15.83
2017-11-04T03:24:47.726Z,16.97
2017-11-04T03:27:13.774Z,17.30
2017-11-04T03:29:39.954Z,16.43
2017-11-04T03:32:06.014Z,16.20
2017-11-04T03:34:32.094Z,15.57
2017-11-04T03:36:58.491Z,16.40
2017-11-04T03:39:24.589Z,14.67
2017-11-04T03:41:50.687Z,15.73
2017-11-04T03:44:16.797Z,16.47
2017-11-04T03:46:42.891Z,14.03
2017-11-04T03:49:09.018Z,14.73
2017-11-04T03:51:35.069Z,14.87
2017-11-04T03:54:01.186Z,15.43
2017-11-04T03:56:27.282Z,16.03
2017-11-04T03:58:55.306Z,18.73
2017-11-04T04:01:21.394Z,17.57
2017-11-04T04:03:47.465Z,15.00
2017-11-04T04:06:13.618Z,16.90
2017-11-04T04:08:39.718Z,16.90
2017-11-04T04:11:05.798Z,17.03
2017-11-04T04:13:31.933Z,14.83
2017-11-04T04:15:57.943Z,17.13
2017-11-04T04:18:23.998Z,15.00
2017-11-04T04:20:50.114Z,15.00
2017-11-04T04:23:16.203Z,15.13
2017-11-04T04:25:42.680Z,15.73
2017-11-04T04:28:08.767Z,17.80
2017-11-04T04:30:34.855Z,18.30
2017-11-04T04:33:00.969Z,19.10
2017-11-04T04:35:27.033Z,17.93
2017-11-04T04:37:53.546Z,17.40
2017-11-04T04:40:19.710Z,17.37
2017-11-04T04:42:45.851Z,19.23
2017-11-04T04:45:11.999Z,20.87
2017-11-04T04:47:38.129Z,19.53
2017-11-04T04:50:04.328Z,22.23
2017-11-04T04:52:30.361Z,22.83
2017-11-04T04:54:56.398Z,23.10
2017-11-04T04:57:22.614Z,21.60
2017-11-04T04:59:48.713Z,21.23
2017-11-04T05:02:14.816Z,23.17
2017-11-04T05:04:40.923Z,20.53
2017-11-04T05:07:07.021Z,19.60
2017-11-04T05:09:33.550Z,17.60
2017-11-04T05:11:59.602Z,17.53
2017-11-04T05:14:25.663Z,23.90
2017-11-04T05:16:51.824Z,42.83
2017-11-04T05:19:17.887Z,33.07
2017-11-04T05:21:43.954Z,39.20
2017-11-04T05:24:10.155Z,38.10
2017-11-04T05:26:36.270Z,24.37
2017-11-04T05:29:02.392Z,33.63
2017-11-04T05:31:28.498Z,17.17
2017-11-04T05:33:54.583Z,30.07
2017-11-04T05:36:20.717Z,16.40
2017-11-04T05:38:46.798Z,17.00
2017-11-04T05:41:12.860Z,15.90
2017-11-04T05:43:38.966Z,19.30
2017-11-04T05:46:05.417Z,18.67
2017-11-04T05:48:31.487Z,14.30
2017-11-04T05:50:57.644Z,14.70
2017-11-04T05:53:24.091Z,13.67
2017-11-04T05:55:53.013Z,12.83
2017-11-04T05:58:19.114Z,14.83
2017-11-04T06:00:45.568Z,14.40
2017-11-04T06:03:11.631Z,13.27
2017-11-04T06:05:37.744Z,14.77
2017-11-04T06:08:03.841Z,14.30
2017-11-04T06:10:29.923Z,14.87
2017-11-04T06:12:55.994Z,14.97
2017-11-04T06:15:22.411Z,18.13
2017-11-04T06:17:48.493Z,18.80
2017-11-04T06:20:14.563Z,15.27
2017-11-04T06:22:40.708Z,16.10
2017-11-04T06:25:06.794Z,15.63
2017-11-04T06:27:32.851Z,15.43
2017-11-04T06:29:59.027Z,19.57
2017-11-04T06:32:26.021Z,18.13
2017-11-04T06:34:52.118Z,17.77
2017-11-04T06:37:18.335Z,15.37
2017-11-04T06:39:44.505Z,16.00
2017-11-04T06:42:10.563Z,16.20
2017-11-04T06:44:37.078Z,17.53
2017-11-04T06:47:03.146Z,18.40
2017-11-04T06:49:29.231Z,14.63
2017-11-04T06:51:55.783Z,16.80
2017-11-04T06:54:21.771Z,19.77
2017-11-04T06:56:47.840Z,16.77
2017-11-04T06:59:13.993Z,16.67
2017-11-04T07:01:40.045Z,18.43
2017-11-04T07:04:06.155Z,19.73
2017-11-04T07:06:32.340Z,22.97
2017-11-04T07:08:58.398Z,16.70
2017-11-04T07:11:24.477Z,18.77
2017-11-04T07:13:50.620Z,17.17
2017-11-04T07:16:16.683Z,17.73
2017-11-04T07:18:42.763Z,17.97
2017-11-04T07:21:08.859Z,18.70
2017-11-04T07:23:34.940Z,20.23
2017-11-04T07:26:00.987Z,17.27
2017-11-04T07:28:27.079Z,19.50
2017-11-04T07:30:53.145Z,21.20
2017-11-04T07:33:19.227Z,21.20
2017-11-04T07:35:45.302Z,22.47
2017-11-04T07:38:11.802Z,21.33
2017-11-04T07:40:37.937Z,21.33
2017-11-04T07:43:04.030Z,17.47
2017-11-04T07:45:30.091Z,17.23
2017-11-04T07:47:56.194Z,17.10
2017-11-04T07:50:22.287Z,17.77
2017-11-04T07:52:48.402Z,16.47
2017-11-04T07:55:14.513Z,18.33
2017-11-04T07:57:40.657Z,18.53
2017-11-04T08:00:06.794Z,24.70
2017-11-04T08:02:32.889Z,19.13
2017-11-04T08:04:59.014Z,19.40
2017-11-04T08:07:25.304Z,22.70
2017-11-04T08:09:51.449Z,22.10
2017-11-04T08:12:17.545Z,18.03
2017-11-04T08:14:43.621Z,19.60
2017-11-04T08:17:09.727Z,19.63
2017-11-04T08:19:35.834Z,20.33
2017-11-04T08:22:01.923Z,20.57
2017-11-04T08:24:27.952Z,21.00
2017-11-04T08:26:54.095Z,21.10
2017-11-04T08:29:20.279Z,19.67
2017-11-04T08:31:46.471Z,21.13
2017-11-04T08:34:12.590Z,20.17
2017-11-04T08:36:38.675Z,19.40
2017-11-04T08:39:04.776Z,19.40
2017-11-04T08:41:30.871Z,20.40
2017-11-04T08:43:56.982Z,19.70
2017-11-04T08:46:23.104Z,20.97
2017-11-04T08:48:49.195Z,20.07
2017-11-04T08:51:15.299Z,19.20
2017-11-04T08:53:41.394Z,20.60
2017-11-04T08:56:07.525Z,23.10
2017-11-04T08:58:33.704Z,19.70
2017-11-04T09:00:59.920Z,19.47
2017-11-04T09:03:26.002Z,21.70
2017-11-04T09:05:52.498Z,20.10
2017-11-04T09:08:18.575Z,20.77
2017-11-04T09:10:44.683Z,22.30
2017-11-04T09:13:10.793Z,21.73
2017-11-04T09:15:36.882Z,20.40
2017-11-04T09:18:03.007Z,21.67
2017-11-04T09:20:29.973Z,21.70
2017-11-04T09:22:56.047Z,23.60
2017-11-04T09:25:22.178Z,23.43
2017-11-04T09:27:48.275Z,23.70
2017-11-04T09:30:14.458Z,21.23
2017-11-04T09:32:40.547Z,19.80
2017-11-04T09:35:06.652Z,20.57
2017-11-04T09:37:32.756Z,22.40
2017-11-04T09:39:58.798Z,22.53
2017-11-04T09:42:24.809Z,22.33
2017-11-04T09:44:50.859Z,20.50
2017-11-04T09:47:16.926Z,18.77
2017-11-04T09:49:43.307Z,22.30
2017-11-04T09:52:09.407Z,22.07
2017-11-04T09:54:36.037Z,22.17
2017-11-04T09:57:02.159Z,20.57
2017-11-04T09:59:28.246Z,21.63
2017-11-04T10:01:54.416Z,21.27
2017-11-04T10:04:20.543Z,23.40
2017-11-04T10:06:46.618Z,22.00
2017-11-04T10:09:12.803Z,21.33
2017-11-04T10:11:38.895Z,21.37
2017-11-04T10:14:04.947Z,21.83
2017-11-04T10:16:31.003Z,21.13
2017-11-04T10:18:57.091Z,21.57
2017-11-04T10:21:23.142Z,22.27
2017-11-04T10:23:49.236Z,21.03
2017-11-04T10:26:15.294Z,24.07
2017-11-04T10:28:41.428Z,23.00
2017-11-04T10:31:07.558Z,20.03
2017-11-04T10:33:33.585Z,21.10
2017-11-04T10:35:59.599Z,20.67
2017-11-04T10:38:25.660Z,22.43
2017-11-04T10:40:51.723Z,21.17
2017-11-04T10:43:17.807Z,22.50
2017-11-04T10:45:43.886Z,22.87
2017-11-04T10:48:09.988Z,22.53
2017-11-04T10:50:36.075Z,22.63
2017-11-04T10:53:02.183Z,22.97
2017-11-04T10:55:28.263Z,21.53
2017-11-04T10:57:54.319Z,21.60
2017-11-04T11:00:20.442Z,23.80
2017-11-04T11:02:46.537Z,29.47
2017-11-04T11:05:12.591Z,24.87
2017-11-04T11:07:38.698Z,23.07
2017-11-04T11:10:04.836Z,22.57
2017-11-04T11:12:31.034Z,21.63
2017-11-04T11:14:57.111Z,22.80
2017-11-04T11:17:23.191Z,22.87
2017-11-04T11:19:49.602Z,26.20
2017-11-04T11:22:15.675Z,21.20
2017-11-04T11:24:41.730Z,22.80
2017-11-04T11:27:07.975Z,22.57
2017-11-04T11:29:34.154Z,20.43
2017-11-04T11:32:00.226Z,22.50
2017-11-04T11:34:26.365Z,21.27
2017-11-04T11:36:52.524Z,24.83
2017-11-04T11:39:18.586Z,22.80
2017-11-04T11:41:44.774Z,24.77
2017-11-04T11:44:10.866Z,22.50
2017-11-04T11:46:36.974Z,21.73
2017-11-04T11:49:03.175Z,19.23
2017-11-04T11:51:29.298Z,19.70
2017-11-04T11:53:55.374Z,21.00
2017-11-04T11:56:21.463Z,19.87
2017-11-04T11:58:47.569Z,20.00
2017-11-04T12:01:13.742Z,20.63
2017-11-04T12:03:39.880Z,18.77
2017-11-04T12:06:05.986Z,19.20
2017-11-04T12:08:32.159Z,21.67
2017-11-04T12:10:58.252Z,21.73
2017-11-04T12:13:24.354Z,22.00
2017-11-04T12:15:50.479Z,20.20
2017-11-04T12:18:16.499Z,21.90
2017-11-04T12:20:42.614Z,21.03
2017-11-04T12:23:08.751Z,18.17
2017-11-04T12:25:34.864Z,21.90
2017-11-04T12:28:00.960Z,20.83
2017-11-04T12:30:27.133Z,22.40
2017-11-04T12:32:53.531Z,25.30
2017-11-04T12:35:19.606Z,41.53
2017-11-04T12:37:45.703Z,26.57
2017-11-04T12:40:11.805Z,32.03
2017-11-04T12:42:37.890Z,22.80
2017-11-04T12:45:04.299Z,19.43
2017-11-04T12:47:30.447Z,21.23
2017-11-04T12:49:56.577Z,19.70
2017-11-04T12:52:22.718Z,21.70
2017-11-04T12:54:48.779Z,20.73
2017-11-04T12:57:15.195Z,23.80
2017-11-04T12:59:41.267Z,24.00
2017-11-04T13:02:07.363Z,23.60
2017-11-04T13:04:33.451Z,24.50
2017-11-04T13:06:59.487Z,22.93
2017-11-04T13:09:25.642Z,24.40
2017-11-04T13:11:51.755Z,23.57
2017-11-04T13:14:17.825Z,22.63
2017-11-04T13:16:44.006Z,25.63
2017-11-04T13:19:10.130Z,24.00
2017-11-04T13:21:36.199Z,22.60
2017-11-04T13:24:02.337Z,22.37
2017-11-04T13:26:28.371Z,22.57
2017-11-04T13:28:54.447Z,22.23
2017-11-04T13:31:20.620Z,20.70
2017-11-04T13:33:46.799Z,23.40
2017-11-04T13:36:12.856Z,20.70
2017-11-04T13:38:38.954Z,23.93
2017-11-04T13:41:05.083Z,24.17
2017-11-04T13:43:31.241Z,30.57
2017-11-04T13:45:57.387Z,30.60
2017-11-04T13:48:23.514Z,31.10
2017-11-04T13:50:49.690Z,25.67
2017-11-04T13:53:15.742Z,25.67
2017-11-04T13:55:41.839Z,23.90
2017-11-04T13:58:07.947Z,24.50
2017-11-04T14:00:34.032Z,22.80
2017-11-04T14:03:00.103Z,24.30
2017-11-04T14:05:26.483Z,25.37
2017-11-04T14:07:52.555Z,25.47
2017-11-04T14:10:18.693Z,23.83
2017-11-04T14:12:44.893Z,22.30
2017-11-04T14:15:11.024Z,24.00
2017-11-04T14:17:37.082Z,25.10
2017-11-04T14:20:03.223Z,22.57
2017-11-04T14:22:29.297Z,23.00
2017-11-04T14:24:55.361Z,26.33
2017-11-04T14:27:21.500Z,25.07
2017-11-04T14:29:47.559Z,25.53
2017-11-04T14:32:13.984Z,25.17
2017-11-04T14:34:40.067Z,24.23
2017-11-04T14:37:06.147Z,25.70
2017-11-04T14:39:32.270Z,31.27
2017-11-04T14:41:58.439Z,25.83
2017-11-04T14:44:24.575Z,26.73
2017-11-04T14:46:51.090Z,24.63
2017-11-04T14:49:17.273Z,23.97
2017-11-04T14:51:43.342Z,25.20
2017-11-04T14:54:09.427Z,25.03
2017-11-04T14:56:35.527Z,26.83
2017-11-04T14:59:01.757Z,24.87
2017-11-04T15:01:27.864Z,23.53
2017-11-04T15:03:53.943Z,24.93
2017-11-04T15:06:20.075Z,25.20
2017-11-04T15:08:46.171Z,25.77
2017-11-04T15:11:12.267Z,30.50
2017-11-04T15:13:38.361Z,28.87
2017-11-04T15:16:04.547Z,29.17
2017-11-04T15:18:30.647Z,30.03
2017-11-04T15:20:56.803Z,29.07
2017-11-04T15:23:22.931Z,28.97
2017-11-04T15:25:49.030Z,30.77
2017-11-04T15:28:15.139Z,31.17
2017-11-04T15:30:41.227Z,32.73
2017-11-04T15:33:07.345Z,32.70
2017-11-04T15:35:33.494Z,30.97
2017-11-04T15:37:59.618Z,30.80
2017-11-04T15:40:25.714Z,30.47
2017-11-04T15:42:51.806Z,30.97
2017-11-04T15:45:17.916Z,31.33
2017-11-04T15:47:44.046Z,32.57
2017-11-04T15:50:10.162Z,34.80
2017-11-04T15:52:36.259Z,36.50
2017-11-04T15:55:02.457Z,38.37
2017-11-04T15:57:28.594Z,40.57
2017-11-04T15:59:54.761Z,32.47
2017-11-04T16:02:20.843Z,37.37
2017-11-04T16:04:47.061Z,33.97
2017-11-04T16:07:13.136Z,40.17
2017-11-04T16:09:39.250Z,32.47
2017-11-04T16:12:05.488Z,32.50
2017-11-04T16:14:31.571Z,33.33
2017-11-04T16:16:57.661Z,34.03
2017-11-04T16:19:23.782Z,30.33
2017-11-04T16:21:49.883Z,29.80
2017-11-04T16:24:15.963Z,31.00
2017-11-04T16:26:42.012Z,34.17
2017-11-04T16:29:08.095Z,31.60
2017-11-04T16:31:34.185Z,36.67
2017-11-04T16:34:00.230Z,29.63
2017-11-04T16:36:26.329Z,31.40
2017-11-04T16:38:52.488Z,31.73
2017-11-04T16:41:18.598Z,34.50
2017-11-04T16:43:44.714Z,34.00
2017-11-04T16:46:10.942Z,31.70
2017-11-04T16:48:37.053Z,33.10
2017-11-04T16:51:03.170Z,32.20
2017-11-04T16:53:29.284Z,30.40
2017-11-04T16:55:55.367Z,33.70
2017-11-04T16:58:21.467Z,29.80
2017-11-04T17:00:47.533Z,29.40
2017-11-04T17:03:13.646Z,29.57
2017-11-04T17:05:39.734Z,31.70
2017-11-04T17:08:05.829Z,33.63
2017-11-04T17:10:31.932Z,34.57
2017-11-04T17:12:57.997Z,31.30
2017-11-04T17:15:24.194Z,31.90
2017-11-04T17:17:50.263Z,31.93
2017-11-04T17:20:16.356Z,32.70
2017-11-04T17:22:42.482Z,34.30
2017-11-04T17:25:08.549Z,30.87
2017-11-04T17:27:34.730Z,30.43
2017-11-04T17:30:00.791Z,33.17
2017-11-04T17:32:26.963Z,37.23
2017-11-04T17:34:53.058Z,32.30
2017-11-04T17:37:19.179Z,34.07
2017-11-04T17:39:45.277Z,33.90
2017-11-04T17:42:11.585Z,35.07
2017-11-04T17:44:37.670Z,34.57
2017-11-04T17:47:03.802Z,36.13
2017-11-04T17:49:29.907Z,37.40
2017-11-04T17:51:56.038Z,36.70
2017-11-04T17:54:22.152Z,35.90
2017-11-04T17:56:48.221Z,38.20
2017-11-04T17:59:14.644Z,44.70
2017-11-04T18:01:40.712Z,40.63
2017-11-04T18:04:06.814Z,41.13
2017-11-04T18:06:33.052Z,44.60
2017-11-04T18:08:59.169Z,42.10
2017-11-04T18:11:25.243Z,44.77
2017-11-04T18:13:51.349Z,43.60
2017-11-04T18:16:17.427Z,46.07
2017-11-04T18:18:43.544Z,48.03
2017-11-04T18:21:10.013Z,46.20
2017-11-04T18:23:36.109Z,46.00
2017-11-04T18:26:02.260Z,45.40
2017-11-04T18:28:28.382Z,46.67
2017-11-04T18:30:54.535Z,42.43
2017-11-04T18:33:20.622Z,43.00
2017-11-04T18:35:47.163Z,48.37
2017-11-04T18:38:13.274Z,48.73
2017-11-04T18:40:39.378Z,44.80
2017-11-04T18:43:05.529Z,46.20
2017-11-04T18:45:31.653Z,45.17
2017-11-04T18:47:57.755Z,47.30
2017-11-04T18:50:23.864Z,43.13
2017-11-04T18:52:49.979Z,43.17
2017-11-04T18:55:16.075Z,47.83
2017-11-04T18:57:42.486Z,42.20
2017-11-04T19:00:08.615Z,42.73
2017-11-04T19:02:34.947Z,40.00
2017-11-04T19:05:01.438Z,44.03
2017-11-04T19:07:27.592Z,42.50
2017-11-04T19:09:53.674Z,43.13
2017-11-04T19:12:19.791Z,44.57
2017-11-04T19:14:45.891Z,46.30
2017-11-04T19:17:12.283Z,44.53
2017-11-04T19:19:38.434Z,45.47
2017-11-04T19:22:04.596Z,44.90
2017-11-04T19:24:31.051Z,45.77
2017-11-04T19:26:57.126Z,42.23
2017-11-04T19:29:23.223Z,45.53
2017-11-04T19:31:49.298Z,44.50
2017-11-04T19:34:15.373Z,45.30
2017-11-04T19:36:41.811Z,41.90
2017-11-04T19:39:07.906Z,41.63
2017-11-04T19:41:34.031Z,41.80
2017-11-04T19:44:00.478Z,40.87
2017-11-04T19:46:26.603Z,38.83
2017-11-04T19:48:52.822Z,41.23
2017-11-04T19:51:19.437Z,43.43
2017-11-04T19:53:45.556Z,39.37
2017-11-04T19:56:11.624Z,39.17
2017-11-04T19:58:38.606Z,41.63
2017-11-04T20:01:04.727Z,41.33
2017-11-04T20:03:30.840Z,39.57
2017-11-04T20:05:57.424Z,39.13
2017-11-04T20:08:23.643Z,41.60
2017-11-04T20:10:49.852Z,42.50
2017-11-04T20:13:16.287Z,40.00
2017-11-04T20:15:42.469Z,38.00
2017-11-04T20:18:08.661Z,39.67
2017-11-04T20:20:34.917Z,40.50
2017-11-04T20:23:01.049Z,40.57
2017-11-04T20:25:27.553Z,44.17
2017-11-04T20:27:53.696Z,41.33
2017-11-04T20:30:19.910Z,38.53
2017-11-04T20:32:46.099Z,43.23
2017-11-04T20:35:12.305Z,41.07
2017-11-04T20:37:38.806Z,37.30
2017-11-04T20:40:05.058Z,40.80
2017-11-04T20:42:31.384Z,44.70
2017-11-04T20:44:57.642Z,44.50
2017-11-04T20:47:23.785Z,41.50
2017-11-04T20:49:50.281Z,40.37
2017-11-04T20:52:16.438Z,40.50
2017-11-04T20:54:42.715Z,37.90
2017-11-04T20:57:09.288Z,38.33
2017-11-04T20:59:35.452Z,40.87
2017-11-04T21:02:01.627Z,39.63
2017-11-04T21:04:28.210Z,37.27
2017-11-04T21:06:54.376Z,42.43
2017-11-04T21:09:20.600Z,44.27
2017-11-04T21:11:47.095Z,42.30
2017-11-04T21:14:13.814Z,41.37
2017-11-04T21:16:39.963Z,38.63
2017-11-04T21:19:07.076Z,38.33
2017-11-04T21:21:33.205Z,43.30
2017-11-04T21:23:59.760Z,45.37
2017-11-04T21:26:25.923Z,44.03
2017-11-04T21:28:52.071Z,39.57
2017-11-04T21:31:18.291Z,43.90
2017-11-04T21:33:44.386Z,38.80
2017-11-04T21:36:10.876Z,43.60
2017-11-04T21:38:37.037Z,42.17
2017-11-04T21:41:03.142Z,40.40
2017-11-04T21:43:29.556Z,40.70
2017-11-04T21:45:55.639Z,42.27
2017-11-04T21:48:21.756Z,43.27
2017-11-04T21:50:47.899Z,40.77
2017-11-04T21:53:13.999Z,42.37
2017-11-04T21:55:40.516Z,42.97
2017-11-04T21:58:06.617Z,41.83
2017-11-04T22:00:32.752Z,44.70
2017-11-04T22:02:58.868Z,45.97
2017-11-04T22:05:24.948Z,44.17
2017-11-04T22:07:51.454Z,46.20
2017-11-04T22:10:17.533Z,43.10
2017-11-04T22:12:43.622Z,37.70
2017-11-04T22:15:09.708Z,41.13
2017-11-04T22:17:35.788Z,38.60
2017-11-04T22:20:02.259Z,39.23
2017-11-04T22:22:28.387Z,42.10
2017-11-04T22:24:54.483Z,41.53
2017-11-04T22:27:20.595Z,42.80
2017-11-04T22:29:46.685Z,43.33
2017-11-04T22:32:13.136Z,43.00
2017-11-04T22:34:39.264Z,40.67
2017-11-04T22:37:05.362Z,43.30
2017-11-04T22:39:31.481Z,39.80
2017-11-04T22:41:57.538Z,37.83
2017-11-04T22:44:24.084Z,38.80
2017-11-04T22:46:50.172Z,38.57
2017-11-04T22:49:16.282Z,32.97
2017-11-04T22:51:42.402Z,35.73
2017-11-04T22:54:08.471Z,34.67
2017-11-04T22:56:35.055Z,30.20
2017-11-04T22:59:01.143Z,33.70
2017-11-04T23:01:27.297Z,33.60
2017-11-04T23:03:53.829Z,29.50
2017-11-04T23:06:19.926Z,29.63
2017-11-04T23:08:46.019Z,35.43
2017-11-04T23:11:12.070Z,29.60
2017-11-04T23:13:38.210Z,28.00
2017-11-04T23:16:04.659Z,28.73
2017-11-04T23:18:30.766Z,29.77
2017-11-04T23:20:56.854Z,28.50
2017-11-04T23:23:22.934Z,28.17
2017-11-04T23:25:49.027Z,29.03
2017-11-04T23:28:15.414Z,27.87
2017-11-04T23:30:41.538Z,25.93
2017-11-04T23:33:07.582Z,28.00
2017-11-04T23:35:33.738Z,27.77
2017-11-04T23:37:59.905Z,26.37
2017-11-04T23:40:26.335Z,28.20
2017-11-04T23:42:52.444Z,34.80
2017-11-04T23:45:18.544Z,32.50
2017-11-04T23:47:44.651Z,29.93
2017-11-04T23:50:10.743Z,26.83
2017-11-04T23:52:37.300Z,23.33
2017-11-04T23:55:03.450Z,22.70
2017-11-04T23:57:29.501Z,20.60
2017-11-04T23:59:55.607Z,22.00
